Accueil
METAR-TAF:

METAR-TAF

Aéroports :

Khartoum, Soudan

Aéroport international de Khartoum

latitude: 15-36N, longitude: 032-33E, altitude: 382 m

Observation

Le bulletin a été fait il y a 36 minutes, à 12:30 UTC
Vent 12 kt de nord
Température 31°C
Humidité 9%
Pression 1013 hPa
Visibilité 10 km ou plus
pas de nuages en-dessous de 1500 mètres et pas de cumulonimbus.

METAR: HSSS 261230Z 35012KT CAVOK 31/M06 Q1013 NOSIG

Heure: 16:06 (13:06 UTC)

Prévision

Le bulletin a été fait il y a 2 heures et 6 minutes, à 11:00 UTC
Prévision valable du 26 à 12 UTC au 27 à 18 UTC
Vent 12 kt de nord avec des rafales jusqu'à 22 kt
Visibilité: 8000 m
Probabilité 30% :
Temporairement
du 26 à 18 UTC au 26 à 21 UTC
Visibilité: 4000 m
Chasse-sable élevée

TAF: HSSS 261100Z 2612/2718 36012G22KT 8000 PROB30 TEMPO 2618/2621 4000 BLSA

Observations et prévisions météorologiques de plus de 4000 aéroports (messages METAR et TAF).

Les stations disponibles sont représentées par des disques jaunes et rouges sur la carte.

Passer la souris dessus pour voir le nom de la station.

Cliquer dessus pour voir les observations et prévisions météorologiques.

Pour changer de carte: cliquez sur les boutons verts avec une croix noire pour zoomer, sur le bouton vert avec un tiret pour effectuer un zoom arrière, ou sur les flèches vertes pour les cartes adjacentes.


METAR-TAF: